Main page
METAR-TAF:

METAR-TAF

Airports :

Amman, Jordan

Amman Civil Airport

latitude: 31-59N, longitude: 035-59E, elevation: 767 m

Current weather observation

The report was made 20 minutes ago, at 05:00 UTC
Calm wind
Temperature 10°C
Humidity 82%
Pressure 1018 hPa
Visibility: 4000 m
haze

METAR: OJAM 290500Z 00000KT 4000 HZ NSC 10/07 Q1018 NOSIG

Time: 07:20 (05:20 UTC)

Forecast

The report was made 7 hours and 5 minutes ago, at 22:15 UTC
Forecast valid from 29 at 00 UTC to 30 at 06 UTC
Wind 2 kt from variable directions
Visibility: 6000 m
Probability 30%
from 29 at 02 UTC to 29 at 06 UTC
Visibility: 3000 m
smoke
Becoming
from 29 at 06 UTC to 29 at 08 UTC
Wind 14 kt from the West/Northwest
Visibility: 5000 m
haze

TAF: OJAM 282215Z 2900/3006 VRB02KT 6000 NSC PROB30 2902/2906 3000 FU BECMG 2906/2908 29014KT 5000 HZ NSC

Weather observations and forecasts of more than 4000 airports (METAR and TAF reports).

The available stations are represented by yellow and red dots on the map.

Hover mouse over dot to see the name of the station.

Then click to see weather observations and forecasts.

To change the map : click on the green buttons with a black cross to zoom in, on the green button with a dash to zoom out, or on the green arrows for adjacent maps.


METAR-TAF: